createdAt,value
2023-03-16T00:00:36.387Z,10.73
2023-03-16T00:03:04.824Z,9.13
2023-03-16T00:05:33.188Z,9.70
2023-03-16T00:08:01.477Z,10.80
2023-03-16T00:10:29.927Z,9.38
2023-03-16T00:12:58.542Z,10.73
2023-03-16T00:15:26.831Z,10.43
2023-03-16T00:17:56.520Z,11.75
2023-03-16T00:20:24.983Z,11.93
2023-03-16T00:22:53.528Z,10.93
2023-03-16T00:25:21.809Z,10.82
2023-03-16T00:27:50.120Z,12.95
2023-03-16T00:30:18.548Z,9.48
2023-03-16T00:32:46.854Z,10.90
2023-03-16T00:35:16.579Z,12.48
2023-03-16T00:37:45.097Z,14.18
2023-03-16T00:40:14.037Z,15.18
2023-03-16T00:42:42.480Z,20.17
2023-03-16T00:45:11.957Z,17.30
2023-03-16T00:47:40.307Z,26.10
2023-03-16T00:50:09.578Z,20.58
2023-03-16T00:52:39.230Z,17.45
2023-03-16T00:55:08.579Z,17.77
2023-03-16T00:57:36.904Z,16.40
2023-03-16T01:00:12.975Z,18.02
2023-03-16T01:02:41.435Z,23.35
2023-03-16T01:05:10.486Z,21.52
2023-03-16T01:07:40.317Z,18.05
2023-03-16T01:10:09.724Z,11.95
2023-03-16T01:12:38.042Z,15.38
2023-03-16T01:15:07.024Z,15.15
2023-03-16T01:17:35.493Z,13.45
2023-03-16T01:20:05.211Z,15.23
2023-03-16T01:22:33.739Z,14.68
2023-03-16T01:25:03.380Z,10.50
2023-03-16T01:27:31.693Z,18.70
2023-03-16T01:30:00.208Z,12.68
2023-03-16T01:32:28.564Z,13.82
2023-03-16T01:34:57.873Z,12.00
2023-03-16T01:37:26.204Z,12.77
2023-03-16T01:39:54.581Z,14.65
2023-03-16T01:42:24.266Z,12.32
2023-03-16T01:44:54.408Z,14.02
2023-03-16T01:47:23.141Z,14.57
2023-03-16T01:49:54.948Z,12.68
2023-03-16T01:52:24.440Z,13.40
2023-03-16T01:54:54.604Z,14.25
2023-03-16T01:57:24.869Z,12.20
2023-03-16T01:59:54.601Z,14.50
2023-03-16T02:02:25.134Z,12.75
2023-03-16T02:04:56.137Z,13.10
2023-03-16T02:07:26.299Z,12.30
2023-03-16T02:09:56.566Z,12.40
2023-03-16T02:12:26.313Z,14.65
2023-03-16T02:14:54.778Z,18.52
2023-03-16T02:17:24.696Z,16.52
2023-03-16T02:19:58.204Z,12.73
2023-03-16T02:22:26.528Z,14.63
2023-03-16T02:24:54.878Z,14.65
2023-03-16T02:27:26.568Z,20.65
2023-03-16T02:30:11.690Z,21.23
2023-03-16T02:32:40.442Z,13.32
2023-03-16T02:35:09.466Z,14.73
2023-03-16T02:37:37.844Z,17.02
2023-03-16T02:40:18.511Z,9.77
2023-03-16T02:42:47.030Z,13.38
2023-03-16T02:45:16.784Z,12.43
2023-03-16T02:47:46.045Z,12.63
2023-03-16T02:50:14.453Z,10.55
2023-03-16T02:52:42.843Z,9.57
2023-03-16T02:55:11.817Z,10.15
2023-03-16T02:57:40.162Z,9.02
2023-03-16T03:00:13.200Z,9.55
2023-03-16T03:02:44.919Z,10.68
2023-03-16T03:05:13.411Z,10.23
2023-03-16T03:07:42.114Z,14.07
2023-03-16T03:10:11.064Z,11.30
2023-03-16T03:12:39.511Z,13.98
2023-03-16T03:15:08.690Z,15.85
2023-03-16T03:17:37.450Z,19.30
2023-03-16T03:20:13.917Z,17.58
2023-03-16T03:22:42.442Z,20.15
2023-03-16T03:25:10.870Z,13.98
2023-03-16T03:27:39.312Z,20.63
2023-03-16T03:30:08.072Z,23.80
2023-03-16T03:32:36.496Z,19.70
2023-03-16T03:35:04.863Z,29.23
2023-03-16T03:37:35.102Z,21.80
2023-03-16T03:40:10.448Z,26.65
2023-03-16T03:42:38.825Z,17.55
2023-03-16T03:45:07.886Z,27.23
2023-03-16T03:47:36.323Z,28.27
2023-03-16T03:50:04.651Z,16.63
2023-03-16T03:52:34.289Z,22.10
2023-03-16T03:55:02.547Z,16.15
2023-03-16T03:57:30.849Z,21.77
2023-03-16T03:59:59.136Z,15.00
2023-03-16T04:02:27.487Z,19.13
2023-03-16T04:04:55.880Z,25.00
2023-03-16T04:07:24.167Z,30.40
2023-03-16T04:09:53.818Z,17.27
2023-03-16T04:12:22.206Z,19.88
2023-03-16T04:14:51.619Z,15.50
2023-03-16T04:17:22.386Z,15.38
2023-03-16T04:19:50.636Z,18.25
2023-03-16T04:22:18.964Z,16.55
2023-03-16T04:24:47.393Z,13.32
2023-03-16T04:27:17.289Z,17.90
2023-03-16T04:29:45.609Z,22.45
2023-03-16T04:32:14.010Z,24.70
2023-03-16T04:34:43.808Z,28.70
2023-03-16T04:37:12.285Z,23.35
2023-03-16T04:39:40.697Z,28.23
2023-03-16T04:42:09.067Z,25.25
2023-03-16T04:44:44.330Z,21.13
2023-03-16T04:47:12.688Z,32.47
2023-03-16T04:49:40.985Z,25.17
2023-03-16T04:52:09.794Z,26.35
2023-03-16T04:54:38.126Z,38.17
2023-03-16T04:57:06.451Z,22.58
2023-03-16T04:59:34.763Z,24.42
2023-03-16T05:02:04.619Z,26.58
2023-03-16T05:04:34.507Z,19.83
2023-03-16T05:07:02.937Z,18.00
2023-03-16T05:09:31.286Z,18.30
2023-03-16T05:11:59.594Z,27.80
2023-03-16T05:14:28.401Z,19.75
2023-03-16T05:16:56.720Z,22.05
2023-03-16T05:19:26.442Z,20.50
2023-03-16T05:21:54.729Z,18.17
2023-03-16T05:24:23.285Z,13.63
2023-03-16T05:26:52.252Z,14.23
2023-03-16T05:29:20.588Z,15.93
2023-03-16T05:31:48.911Z,14.63
2023-03-16T05:34:17.204Z,14.35
2023-03-16T05:36:46.850Z,12.77
2023-03-16T05:39:15.177Z,13.98
2023-03-16T05:41:44.776Z,12.93
2023-03-16T05:44:13.620Z,15.10
2023-03-16T05:46:41.997Z,13.95
2023-03-16T05:49:12.992Z,11.38
2023-03-16T05:51:41.698Z,13.55
2023-03-16T05:54:13.627Z,17.60
2023-03-16T05:56:41.936Z,15.50
2023-03-16T05:59:10.294Z,19.33
2023-03-16T06:01:40.004Z,16.70
2023-03-16T06:04:08.336Z,15.18
2023-03-16T06:06:36.656Z,17.58
2023-03-16T06:09:05.218Z,14.65
2023-03-16T06:11:34.866Z,20.17
2023-03-16T06:14:03.215Z,19.85
2023-03-16T06:16:31.501Z,17.95
2023-03-16T06:19:00.081Z,16.10
2023-03-16T06:21:28.467Z,19.65
2023-03-16T06:23:56.985Z,18.65
2023-03-16T06:26:25.290Z,36.40
2023-03-16T06:28:54.933Z,29.27
2023-03-16T06:31:23.248Z,24.40
2023-03-16T06:33:51.601Z,20.30
2023-03-16T06:36:19.901Z,20.20
2023-03-16T06:38:48.184Z,21.55
2023-03-16T06:41:16.466Z,18.45
2023-03-16T06:43:44.758Z,18.42
2023-03-16T06:46:14.492Z,18.95
2023-03-16T06:48:42.858Z,19.55
2023-03-16T06:51:11.197Z,20.67
2023-03-16T06:53:39.481Z,22.33
2023-03-16T06:56:08.039Z,23.02
2023-03-16T06:58:36.489Z,20.35
2023-03-16T07:01:04.908Z,23.90
2023-03-16T07:03:34.613Z,34.03
2023-03-16T07:06:03.193Z,24.23
2023-03-16T07:08:31.484Z,17.65
2023-03-16T07:10:59.739Z,24.13
2023-03-16T07:13:27.991Z,28.50
2023-03-16T07:15:56.287Z,21.50
2023-03-16T07:18:25.928Z,23.15
2023-03-16T07:20:56.045Z,20.42
2023-03-16T07:23:24.838Z,17.10
2023-03-16T07:25:53.299Z,18.38
2023-03-16T07:28:21.643Z,16.48
2023-03-16T07:31:02.853Z,19.35
2023-03-16T07:33:32.215Z,16.10
2023-03-16T07:36:04.407Z,19.23
2023-03-16T07:38:33.550Z,18.30
2023-03-16T07:41:02.044Z,15.30
2023-03-16T07:43:30.358Z,16.20
2023-03-16T07:46:01.411Z,18.90
2023-03-16T07:48:29.745Z,16.42
2023-03-16T07:50:58.024Z,20.15
2023-03-16T07:53:27.661Z,16.90
2023-03-16T07:55:55.974Z,19.25
2023-03-16T07:58:24.348Z,20.40
2023-03-16T08:00:52.640Z,19.25
2023-03-16T08:03:20.975Z,20.80
2023-03-16T08:05:49.270Z,22.55
2023-03-16T08:08:17.575Z,18.80
2023-03-16T08:10:48.887Z,21.63
2023-03-16T08:13:17.400Z,18.50
2023-03-16T08:15:47.645Z,17.38
2023-03-16T08:18:16.067Z,15.05
2023-03-16T08:20:44.786Z,18.05
2023-03-16T08:23:13.232Z,17.92
2023-03-16T08:25:41.537Z,15.35
2023-03-16T08:28:12.703Z,19.73
2023-03-16T08:30:45.763Z,14.70
2023-03-16T08:33:14.878Z,16.35
2023-03-16T08:35:44.998Z,16.88
2023-03-16T08:38:13.581Z,17.00
2023-03-16T08:40:46.930Z,13.52
2023-03-16T08:43:17.123Z,14.48
2023-03-16T08:45:46.636Z,14.52
2023-03-16T08:48:15.100Z,12.65
2023-03-16T08:50:44.254Z,12.73
2023-03-16T08:53:13.775Z,13.88
2023-03-16T08:55:42.504Z,13.30
2023-03-16T08:58:12.056Z,12.80
2023-03-16T09:00:43.896Z,13.70
2023-03-16T09:03:13.878Z,12.13
2023-03-16T09:05:42.418Z,11.40
2023-03-16T09:08:10.724Z,13.80
2023-03-16T09:10:39.018Z,10.95
2023-03-16T09:13:07.421Z,12.52
2023-03-16T09:15:36.337Z,11.98
2023-03-16T09:18:06.054Z,11.95
2023-03-16T09:20:34.392Z,11.82
2023-03-16T09:23:03.657Z,10.98
2023-03-16T09:25:32.426Z,10.18
2023-03-16T09:28:01.467Z,8.88
2023-03-16T09:30:30.077Z,8.98
2023-03-16T09:32:58.586Z,7.70
2023-03-16T09:35:28.443Z,8.05
2023-03-16T09:38:06.319Z,7.85
2023-03-16T09:40:35.997Z,8.95
2023-03-16T09:43:12.383Z,9.07
2023-03-16T09:45:44.928Z,9.15
2023-03-16T09:48:13.702Z,8.05
2023-03-16T09:50:49.224Z,9.35
2023-03-16T09:53:20.970Z,8.90
2023-03-16T09:55:50.681Z,9.07
2023-03-16T09:58:20.128Z,7.38
2023-03-16T10:00:53.820Z,9.65
2023-03-16T10:03:29.794Z,6.47
2023-03-16T10:06:03.864Z,6.50
2023-03-16T10:08:34.706Z,6.15
2023-03-16T10:11:23.927Z,6.78
2023-03-16T10:13:53.573Z,7.75
2023-03-16T10:16:24.012Z,8.48
2023-03-16T10:18:56.185Z,8.43
2023-03-16T10:21:27.288Z,5.65
2023-03-16T10:23:56.479Z,6.05
2023-03-16T10:26:26.487Z,6.22
2023-03-16T10:28:55.013Z,6.20
2023-03-16T10:31:24.454Z,6.07
2023-03-16T10:33:55.650Z,6.80
2023-03-16T10:36:29.451Z,7.18
2023-03-16T10:41:29.328Z,6.32
2023-03-16T10:43:58.414Z,6.88
2023-03-16T10:46:27.667Z,6.43
2023-03-16T10:49:00.049Z,5.45
2023-03-16T10:51:31.018Z,6.28
2023-03-16T10:54:04.982Z,6.13
2023-03-16T10:56:35.318Z,5.70
2023-03-16T10:59:03.846Z,6.38
2023-03-16T11:01:33.807Z,6.82
2023-03-16T11:04:02.608Z,6.72
2023-03-16T11:06:33.297Z,5.45
2023-03-16T11:09:08.501Z,4.72
2023-03-16T11:11:36.876Z,6.63
2023-03-16T11:14:12.843Z,4.65
2023-03-16T11:16:42.635Z,5.07
2023-03-16T11:19:16.332Z,6.00
2023-03-16T11:21:50.959Z,11.32
2023-03-16T11:24:23.038Z,6.15
2023-03-16T11:26:55.673Z,7.60
2023-03-16T11:29:26.427Z,5.93
2023-03-16T11:31:56.439Z,6.32
2023-03-16T11:34:27.465Z,6.63
2023-03-16T11:36:59.916Z,5.68
2023-03-16T11:39:40.503Z,4.78
2023-03-16T11:42:17.917Z,4.47
2023-03-16T11:44:50.686Z,5.15
2023-03-16T11:47:33.848Z,5.85
2023-03-16T11:50:03.749Z,4.17
2023-03-16T11:52:39.222Z,4.47
2023-03-16T11:55:16.758Z,6.18
2023-03-16T11:57:51.691Z,3.97
2023-03-16T12:00:28.913Z,4.78
2023-03-16T12:03:06.021Z,5.38
2023-03-16T12:05:49.946Z,6.13
2023-03-16T12:08:29.067Z,4.72
2023-03-16T12:10:58.887Z,3.90
2023-03-16T12:13:33.690Z,4.00
2023-03-16T12:16:06.554Z,4.15
2023-03-16T12:18:39.540Z,4.40
2023-03-16T12:21:12.243Z,4.63
2023-03-16T12:23:43.530Z,4.53
2023-03-16T12:26:12.494Z,4.88
2023-03-16T12:28:42.211Z,4.07
2023-03-16T12:31:12.452Z,4.47
2023-03-16T12:33:55.395Z,4.35
2023-03-16T12:36:42.146Z,4.70
2023-03-16T12:39:14.453Z,4.35
2023-03-16T12:41:47.379Z,4.07
2023-03-16T12:44:17.459Z,4.43
2023-03-16T12:46:51.059Z,4.03
2023-03-16T12:49:19.627Z,4.90
2023-03-16T12:51:49.037Z,4.35
2023-03-16T12:54:22.551Z,3.97
2023-03-16T12:56:51.907Z,4.63
2023-03-16T12:59:21.042Z,3.85
2023-03-16T13:01:50.984Z,3.80
2023-03-16T13:04:20.495Z,4.05
2023-03-16T13:06:52.124Z,3.92
2023-03-16T13:09:25.328Z,4.57
2023-03-16T13:11:56.211Z,4.00
2023-03-16T13:14:42.948Z,4.20
2023-03-16T13:17:30.810Z,6.53
2023-03-16T13:20:20.951Z,3.58
2023-03-16T13:23:10.863Z,4.22
2023-03-16T13:25:44.079Z,3.10
2023-03-16T13:28:21.752Z,4.63
2023-03-16T13:30:58.289Z,4.22
2023-03-16T13:33:34.475Z,4.47
2023-03-16T13:36:04.588Z,4.47
2023-03-16T13:38:37.543Z,3.42
2023-03-16T13:41:11.242Z,3.50
2023-03-16T13:43:40.614Z,3.63
2023-03-16T13:46:17.824Z,3.65
2023-03-16T13:48:48.319Z,3.60
2023-03-16T13:51:20.714Z,4.00
2023-03-16T13:53:49.650Z,3.50
2023-03-16T13:56:29.489Z,3.42
2023-03-16T13:59:02.859Z,3.28
2023-03-16T14:01:32.732Z,3.40
2023-03-16T14:04:08.867Z,5.10
2023-03-16T14:06:38.594Z,5.20
2023-03-16T14:09:09.349Z,4.32
2023-03-16T14:11:39.018Z,4.95
2023-03-16T14:14:17.196Z,4.50
2023-03-16T14:16:48.947Z,4.03
2023-03-16T14:19:24.448Z,3.50
2023-03-16T14:21:55.473Z,3.40
2023-03-16T14:24:31.554Z,2.85
2023-03-16T14:27:13.323Z,3.97
2023-03-16T14:29:43.793Z,3.30
2023-03-16T14:32:23.405Z,3.80
2023-03-16T14:34:54.722Z,3.35
2023-03-16T14:37:38.957Z,3.38
2023-03-16T14:40:31.382Z,4.72
2023-03-16T14:43:02.575Z,3.58
2023-03-16T14:45:34.963Z,3.90
2023-03-16T14:48:07.180Z,3.08
2023-03-16T14:50:39.298Z,3.63
2023-03-16T14:53:09.805Z,2.85
2023-03-16T14:55:40.553Z,3.90
2023-03-16T14:58:12.387Z,3.95
2023-03-16T15:00:52.628Z,3.35
2023-03-16T15:03:22.706Z,3.60
2023-03-16T15:05:54.634Z,4.90
2023-03-16T15:08:28.541Z,3.15
2023-03-16T15:11:31.196Z,3.63
2023-03-16T15:14:38.053Z,3.55
2023-03-16T15:17:12.341Z,3.95
2023-03-16T15:19:43.655Z,4.95
2023-03-16T15:22:15.578Z,5.13
2023-03-16T15:24:45.718Z,3.47
2023-03-16T15:27:22.185Z,4.28
2023-03-16T15:29:50.733Z,3.95
2023-03-16T15:32:31.604Z,3.10
2023-03-16T15:34:59.993Z,3.13
2023-03-16T15:37:30.244Z,3.53
2023-03-16T15:39:58.543Z,3.30
2023-03-16T15:42:28.969Z,6.38
2023-03-16T15:44:59.689Z,3.47
2023-03-16T15:47:32.266Z,2.92
2023-03-16T15:50:01.151Z,3.85
2023-03-16T15:52:39.479Z,3.72
2023-03-16T15:55:16.094Z,3.40
2023-03-16T15:57:45.177Z,3.95
2023-03-16T16:00:25.274Z,4.40
2023-03-16T16:02:55.244Z,2.85
2023-03-16T16:05:27.361Z,5.63
2023-03-16T16:07:56.546Z,5.15
2023-03-16T16:10:31.216Z,3.65
2023-03-16T16:13:00.253Z,4.07
2023-03-16T16:15:35.302Z,4.88
2023-03-16T16:18:20.857Z,4.10
2023-03-16T16:20:52.599Z,4.18
2023-03-16T16:23:20.979Z,3.17
2023-03-16T16:25:51.342Z,4.20
2023-03-16T16:28:21.166Z,3.45
2023-03-16T16:30:49.713Z,4.50
2023-03-16T16:33:27.075Z,4.35
2023-03-16T16:35:56.395Z,7.72
2023-03-16T16:38:25.260Z,6.35
2023-03-16T16:40:54.111Z,6.30
2023-03-16T16:43:28.736Z,5.43
2023-03-16T16:45:57.325Z,4.50
2023-03-16T16:48:31.721Z,3.72
2023-03-16T16:51:00.611Z,4.60
2023-03-16T16:53:29.284Z,6.72
2023-03-16T16:55:58.196Z,4.93
2023-03-16T16:58:27.192Z,8.10
2023-03-16T17:01:02.025Z,6.05
2023-03-16T17:03:31.776Z,4.25
2023-03-16T17:06:00.530Z,5.93
2023-03-16T17:08:33.181Z,4.53
2023-03-16T17:11:01.550Z,4.10
2023-03-16T17:13:32.586Z,4.57
2023-03-16T17:16:00.812Z,4.45
2023-03-16T17:18:38.367Z,4.68
2023-03-16T17:21:10.400Z,4.22
2023-03-16T17:23:39.001Z,3.78
2023-03-16T17:26:14.729Z,4.03
2023-03-16T17:28:45.537Z,3.60
2023-03-16T17:31:19.128Z,4.18
2023-03-16T17:33:47.568Z,4.38
2023-03-16T17:36:18.285Z,5.05
2023-03-16T17:38:46.692Z,4.35
2023-03-16T17:41:22.062Z,4.35
2023-03-16T17:43:50.802Z,3.70
2023-03-16T17:46:20.452Z,3.80
2023-03-16T17:48:50.884Z,5.18
2023-03-16T17:51:21.234Z,4.22
2023-03-16T17:53:49.876Z,3.03
2023-03-16T17:56:19.320Z,3.60
2023-03-16T17:58:48.339Z,4.68
2023-03-16T18:01:16.891Z,4.75
2023-03-16T18:03:46.184Z,3.95
2023-03-16T18:06:17.133Z,3.53
2023-03-16T18:08:48.421Z,5.35
2023-03-16T18:11:17.860Z,3.95
2023-03-16T18:13:46.794Z,3.63
2023-03-16T18:16:17.973Z,3.55
2023-03-16T18:18:46.328Z,3.45
2023-03-16T18:21:20.154Z,3.75
2023-03-16T18:26:18.136Z,4.30
2023-03-16T18:28:46.750Z,11.60
2023-03-16T18:31:19.805Z,7.50
2023-03-16T18:33:48.798Z,4.65
2023-03-16T18:36:18.014Z,4.03
2023-03-16T18:38:48.428Z,4.32
2023-03-16T18:41:19.654Z,4.25
2023-03-16T18:43:48.363Z,5.95
2023-03-16T18:46:22.711Z,4.38
2023-03-16T18:48:51.230Z,3.97
2023-03-16T18:51:20.304Z,4.65
2023-03-16T18:53:51.213Z,4.82
2023-03-16T18:56:24.691Z,4.68
2023-03-16T18:58:53.610Z,4.53
2023-03-16T19:01:28.518Z,5.65
2023-03-16T19:03:57.432Z,6.05
2023-03-16T19:06:38.726Z,6.78
2023-03-16T19:09:10.850Z,6.07
2023-03-16T19:11:44.865Z,6.05
2023-03-16T19:14:20.591Z,5.73
2023-03-16T19:16:48.930Z,6.45
2023-03-16T19:19:21.184Z,7.22
2023-03-16T19:21:49.740Z,6.35
2023-03-16T19:24:21.957Z,6.28
2023-03-16T19:26:52.069Z,5.72
2023-03-16T19:29:25.735Z,8.57
2023-03-16T19:31:59.121Z,6.32
2023-03-16T19:34:27.721Z,6.68
2023-03-16T19:36:56.247Z,7.22
2023-03-16T19:39:35.877Z,7.88
2023-03-16T19:42:11.476Z,8.32
2023-03-16T19:44:42.274Z,7.40
2023-03-16T19:47:30.703Z,7.72
2023-03-16T19:50:05.441Z,8.75
2023-03-16T19:52:36.468Z,7.88
2023-03-16T19:55:18.672Z,7.18
2023-03-16T19:57:52.015Z,7.97
2023-03-16T20:00:25.063Z,7.80
2023-03-16T20:02:55.361Z,9.82
2023-03-16T20:05:28.978Z,7.85
2023-03-16T20:10:27.611Z,8.00
2023-03-16T20:13:11.775Z,7.80
2023-03-16T20:18:14.487Z,8.25
2023-03-16T20:20:46.070Z,10.90
2023-03-16T20:23:21.622Z,9.23
2023-03-16T20:25:52.129Z,7.60
2023-03-16T20:28:26.606Z,9.85
2023-03-16T20:33:40.326Z,9.50
2023-03-16T20:39:40.770Z,8.27
2023-03-16T20:42:14.626Z,9.82
2023-03-16T20:47:28.438Z,7.80
2023-03-16T20:49:58.520Z,7.15
2023-03-16T20:52:41.953Z,7.22
2023-03-16T20:55:15.806Z,10.40
2023-03-16T21:00:26.525Z,8.20
2023-03-16T21:02:56.931Z,7.63
2023-03-16T21:05:28.642Z,7.35
2023-03-16T21:08:06.564Z,8.50
2023-03-16T21:10:43.914Z,7.75
2023-03-16T21:13:39.416Z,7.88
2023-03-16T21:16:13.613Z,7.57
2023-03-16T21:18:53.091Z,6.60
2023-03-16T21:21:30.853Z,8.40
2023-03-16T21:24:04.912Z,7.60
2023-03-16T21:26:42.365Z,7.70
2023-03-16T21:29:20.224Z,7.50
2023-03-16T21:31:49.115Z,8.02
2023-03-16T21:34:23.879Z,9.75
2023-03-16T21:36:59.382Z,9.80
2023-03-16T21:39:30.838Z,11.07
2023-03-16T21:41:59.238Z,10.00
2023-03-16T21:44:27.734Z,10.45
2023-03-16T21:47:15.321Z,9.65
2023-03-16T21:49:45.199Z,8.75
2023-03-16T21:52:26.523Z,9.68
2023-03-16T21:54:57.784Z,9.75
2023-03-16T21:57:36.521Z,7.93
2023-03-16T22:00:05.244Z,9.95
2023-03-16T22:03:15.957Z,8.65
2023-03-16T22:06:02.294Z,8.35
2023-03-16T22:08:33.873Z,7.22
2023-03-16T22:11:29.604Z,7.97
2023-03-16T22:16:14.165Z,8.23
2023-03-16T22:17:29.018Z,7.93
2023-03-16T22:19:57.544Z,6.38
2023-03-16T22:22:34.897Z,7.97
2023-03-16T22:25:03.201Z,7.68
2023-03-16T22:27:43.427Z,7.57
2023-03-16T22:31:04.768Z,7.97
2023-03-16T22:34:14.703Z,7.82
2023-03-16T22:43:52.913Z,7.43
2023-03-16T22:46:44.701Z,6.57
2023-03-16T22:49:36.256Z,6.72
2023-03-16T22:52:36.918Z,8.98
2023-03-16T22:55:10.441Z,7.40
2023-03-16T22:57:39.062Z,6.55
2023-03-16T23:00:11.192Z,7.15
2023-03-16T23:02:39.722Z,7.25
2023-03-16T23:05:19.112Z,7.18
2023-03-16T23:07:47.411Z,7.90
2023-03-16T23:10:18.526Z,7.30
2023-03-16T23:12:47.173Z,7.35
2023-03-16T23:15:17.605Z,6.07
2023-03-16T23:17:46.001Z,6.80
2023-03-16T23:20:18.483Z,8.73
2023-03-16T23:22:47.247Z,6.85
2023-03-16T23:25:15.695Z,6.55
2023-03-16T23:27:45.526Z,6.47
2023-03-16T23:30:17.978Z,6.88
2023-03-16T23:32:46.460Z,6.88
2023-03-16T23:35:16.054Z,6.32
2023-03-16T23:37:44.318Z,7.82
2023-03-16T23:40:13.354Z,6.50
2023-03-16T23:42:42.664Z,7.65
2023-03-16T23:45:17.818Z,6.90
2023-03-16T23:47:48.007Z,6.45
2023-03-16T23:50:22.093Z,5.90
2023-03-16T23:52:50.358Z,6.60
2023-03-16T23:55:19.386Z,6.68
2023-03-16T23:57:47.940Z,6.10
